Time;durP1;ratioP1;P1;durP2;ratioP2;P2;SDS_P1;SDS_P2;PMS_P1;PMS_P2;Temp;Humidity;BMP_temperature;BMP_pressure;BME280_temperature;BME280_humidity;BME280_pressure;Samples;Min_cycle;Max_cycle;Signal;HPM_P1;HPM_P2
2021/10/24 00:01:01;;;;;;;22.10;13.20;;;6.90;97.80;;;;;;5035400;28;20043;-78
2021/10/24 00:03:27;;;;;;;19.60;12.33;;;6.90;97.80;;;;;;5018971;28;20083;-78
2021/10/24 00:05:52;;;;;;;21.27;11.73;;;7.00;97.80;;;;;;5035272;28;20033;-78
2021/10/24 00:08:20;;;;;;;24.50;12.77;;;6.90;97.80;;;;;;5053118;28;20091;-78
2021/10/24 00:10:46;;;;;;;24.40;12.37;;;6.90;97.80;;;;;;5035370;28;20112;-78
2021/10/24 00:13:12;;;;;;;26.23;13.37;;;6.90;97.80;;;;;;5051640;28;20037;-78
2021/10/24 00:15:38;;;;;;;23.30;12.83;;;6.90;97.80;;;;;;5034970;28;20111;-78
2021/10/24 00:18:04;;;;;;;20.83;12.33;;;6.90;97.80;;;;;;5051734;28;20029;-78
2021/10/24 00:20:30;;;;;;;19.60;13.13;;;6.90;97.90;;;;;;5051578;28;20380;-78
2021/10/24 00:22:56;;;;;;;23.00;12.87;;;6.90;97.90;;;;;;5051621;28;20116;-78
2021/10/24 00:25:21;;;;;;;23.57;13.43;;;6.90;97.90;;;;;;5052894;28;20104;-78
2021/10/24 00:27:47;;;;;;;22.37;12.40;;;6.80;97.80;;;;;;5034953;28;20033;-78
2021/10/24 00:30:12;;;;;;;19.73;12.57;;;6.80;97.90;;;;;;5052824;28;20036;-78
2021/10/24 00:32:38;;;;;;;22.03;13.07;;;6.80;97.90;;;;;;5052878;28;20485;-78
2021/10/24 00:35:05;;;;;;;18.27;12.30;;;6.80;97.90;;;;;;5018629;28;20481;-78
2021/10/24 00:37:30;;;;;;;22.43;12.73;;;6.80;97.90;;;;;;5018619;28;20479;-78
2021/10/24 00:39:57;;;;;;;24.77;13.53;;;6.70;97.90;;;;;;5051431;28;20144;-78
2021/10/24 00:42:22;;;;;;;23.00;12.83;;;6.70;97.90;;;;;;5051415;28;20409;-78
2021/10/24 00:44:48;;;;;;;21.27;13.00;;;6.70;97.90;;;;;;5034919;28;20033;-78
2021/10/24 00:47:14;;;;;;;21.73;13.27;;;6.70;97.90;;;;;;5052708;28;20033;-79
2021/10/24 00:49:40;;;;;;;21.50;13.10;;;6.70;97.90;;;;;;5051533;28;20025;-78
2021/10/24 00:52:06;;;;;;;18.97;11.60;;;6.70;98.00;;;;;;5053008;28;20117;-78
2021/10/24 00:54:35;;;;;;;22.47;13.17;;;6.70;98.00;;;;;;5056489;28;20462;-78
2021/10/24 00:57:02;;;;;;;26.17;13.20;;;6.70;98.00;;;;;;5054991;28;20044;-78
2021/10/24 00:59:28;;;;;;;26.87;13.00;;;6.70;98.00;;;;;;5055005;28;20032;-78
2021/10/24 01:01:54;;;;;;;23.33;13.90;;;6.70;98.00;;;;;;5054893;28;20410;-78
2021/10/24 01:04:21;;;;;;;21.37;12.30;;;6.70;98.10;;;;;;5054800;28;20083;-77
2021/10/24 01:06:51;;;;;;;23.20;14.13;;;6.60;98.10;;;;;;5038450;28;20508;-78
2021/10/24 01:09:21;;;;;;;21.40;13.33;;;6.60;98.10;;;;;;5054715;28;20021;-78
2021/10/24 01:11:49;;;;;;;21.70;12.77;;;6.70;98.10;;;;;;5054776;28;20028;-78
2021/10/24 01:14:14;;;;;;;23.43;13.43;;;6.60;98.40;;;;;;5055860;28;20501;-78
2021/10/24 01:16:42;;;;;;;22.80;12.87;;;6.60;98.20;;;;;;5054722;28;20029;-78
2021/10/24 01:19:09;;;;;;;19.70;11.63;;;6.60;98.20;;;;;;5038093;28;20029;-78
2021/10/24 01:21:35;;;;;;;24.40;13.37;;;6.60;98.20;;;;;;5054604;28;20499;-78
2021/10/24 01:24:02;;;;;;;20.97;12.23;;;6.60;98.20;;;;;;5055622;28;20051;-78
2021/10/24 01:26:28;;;;;;;19.93;12.43;;;6.60;98.20;;;;;;5054560;28;20025;-78
2021/10/24 01:28:55;;;;;;;22.50;12.57;;;6.60;98.20;;;;;;5037904;28;20079;-78
2021/10/24 01:31:23;;;;;;;18.33;11.90;;;6.60;98.20;;;;;;5055631;28;20079;-78
2021/10/24 01:33:48;;;;;;;24.00;12.33;;;6.60;98.20;;;;;;5054263;28;20033;-78
2021/10/24 01:36:15;;;;;;;21.00;12.67;;;6.60;98.20;;;;;;5054566;28;20177;-78
2021/10/24 01:38:46;;;;;;;19.60;11.80;;;6.60;98.20;;;;;;5054307;28;20036;-78
2021/10/24 01:41:12;;;;;;;23.03;12.70;;;6.50;98.20;;;;;;5054243;28;20033;-78
2021/10/24 01:43:38;;;;;;;22.90;12.20;;;6.50;98.20;;;;;;5037507;28;20040;-78
2021/10/24 01:46:05;;;;;;;24.07;12.40;;;6.50;98.20;;;;;;5055580;28;20537;-78
2021/10/24 01:48:30;;;;;;;20.17;12.30;;;6.50;98.20;;;;;;5054138;28;20025;-78
2021/10/24 01:50:56;;;;;;;21.57;12.93;;;6.50;98.20;;;;;;5054182;28;20381;-78
2021/10/24 01:53:31;;;;;;;25.80;12.63;;;6.50;98.20;;;;;;5037695;28;20048;-78
2021/10/24 01:55:58;;;;;;;21.33;12.43;;;6.40;98.20;;;;;;5055137;28;20036;-78
2021/10/24 01:58:24;;;;;;;20.17;11.10;;;6.40;98.20;;;;;;5054943;28;20087;-78
2021/10/24 02:00:50;;;;;;;23.20;12.20;;;6.40;98.20;;;;;;5037295;28;20031;-78
2021/10/24 02:03:17;;;;;;;22.20;12.47;;;6.40;98.20;;;;;;5036449;28;20033;-78
2021/10/24 02:05:42;;;;;;;24.03;13.27;;;6.40;98.20;;;;;;5037162;28;20048;-78
2021/10/24 02:08:09;;;;;;;25.13;13.67;;;6.30;98.20;;;;;;5055044;28;20032;-78
2021/10/24 02:10:35;;;;;;;21.17;12.97;;;6.40;98.30;;;;;;5054966;28;20032;-78
2021/10/24 02:13:01;;;;;;;20.97;12.23;;;6.30;98.20;;;;;;5053635;28;20135;-78
2021/10/24 02:15:26;;;;;;;20.27;12.27;;;6.20;98.20;;;;;;5036652;28;20049;-78
2021/10/24 02:17:52;;;;;;;22.13;13.50;;;6.30;98.30;;;;;;5020426;28;20083;-78
2021/10/24 02:20:18;;;;;;;22.27;13.17;;;6.20;98.30;;;;;;5036832;28;20051;-78
2021/10/24 02:22:44;;;;;;;21.27;12.70;;;6.30;98.30;;;;;;5053406;28;20112;-78
2021/10/24 02:25:09;;;;;;;20.47;12.60;;;6.30;98.30;;;;;;5053304;28;20036;-78
2021/10/24 02:27:35;;;;;;;21.47;13.17;;;6.30;98.30;;;;;;5053476;28;20033;-78
2021/10/24 02:30:02;;;;;;;22.57;12.67;;;6.20;98.30;;;;;;5053203;28;20029;-78
2021/10/24 02:32:27;;;;;;;22.13;12.03;;;6.20;98.30;;;;;;5020372;28;20182;-78
2021/10/24 02:34:53;;;;;;;22.63;11.80;;;6.20;98.30;;;;;;5053391;28;20108;-78
2021/10/24 02:37:19;;;;;;;24.10;13.37;;;6.20;98.30;;;;;;5019987;28;20036;-78
2021/10/24 02:39:44;;;;;;;19.60;12.13;;;6.20;98.30;;;;;;5036841;28;20036;-78
2021/10/24 02:42:10;;;;;;;21.70;13.10;;;6.30;98.40;;;;;;5020079;28;20033;-78
2021/10/24 02:44:36;;;;;;;23.17;12.90;;;6.20;98.40;;;;;;5053271;28;20044;-78
2021/10/24 02:47:02;;;;;;;23.53;11.70;;;6.20;98.40;;;;;;5053096;28;20062;-77
2021/10/24 02:49:27;;;;;;;19.87;12.17;;;6.20;98.40;;;;;;5053063;28;20095;-77
2021/10/24 02:51:54;;;;;;;23.53;13.30;;;6.10;98.40;;;;;;5054079;28;20029;-77
2021/10/24 02:54:20;;;;;;;22.07;12.77;;;6.10;98.40;;;;;;5054266;28;20156;-81
2021/10/24 02:56:47;;;;;;;21.93;12.70;;;6.10;98.40;;;;;;5052933;28;20037;-81
2021/10/24 02:59:13;;;;;;;24.67;12.57;;;6.10;98.40;;;;;;5053251;28;20033;-81
2021/10/24 03:01:38;;;;;;;19.80;12.43;;;6.10;98.40;;;;;;5054155;28;20398;-81
2021/10/24 03:04:04;;;;;;;21.03;12.03;;;6.10;98.40;;;;;;5019620;28;20059;-80
2021/10/24 03:06:31;;;;;;;24.97;12.77;;;6.10;98.40;;;;;;5036176;28;20384;-81
2021/10/24 03:08:57;;;;;;;20.13;12.70;;;6.10;98.40;;;;;;5052788;28;20036;-81
2021/10/24 03:11:23;;;;;;;20.03;12.50;;;6.10;98.40;;;;;;5036256;28;20025;-81
2021/10/24 03:13:48;;;;;;;19.10;12.63;;;6.10;98.40;;;;;;5052644;28;20404;-81
2021/10/24 03:16:14;;;;;;;23.67;11.90;;;6.00;98.40;;;;;;5019681;28;20548;-81
2021/10/24 03:18:40;;;;;;;21.00;12.37;;;6.10;98.50;;;;;;5053812;28;20477;-81
2021/10/24 03:21:05;;;;;;;19.50;12.40;;;6.00;98.50;;;;;;5054000;28;20086;-81
2021/10/24 03:23:32;;;;;;;25.50;13.67;;;6.00;98.50;;;;;;5036073;28;20132;-81
2021/10/24 03:25:57;;;;;;;27.13;13.03;;;5.90;98.40;;;;;;5052591;28;20435;-81
2021/10/24 03:28:23;;;;;;;22.23;13.63;;;6.10;98.80;;;;;;5053563;28;20096;-77
2021/10/24 03:30:48;;;;;;;22.13;12.97;;;6.00;98.50;;;;;;5035677;28;20534;-77
2021/10/24 03:33:16;;;;;;;21.33;12.73;;;6.00;98.50;;;;;;5035664;28;20033;-77
2021/10/24 03:35:42;;;;;;;23.53;14.00;;;6.00;98.50;;;;;;5052049;28;20556;-77
2021/10/24 03:38:07;;;;;;;21.13;13.37;;;5.90;98.50;;;;;;5052169;28;20120;-77
2021/10/24 03:40:33;;;;;;;24.03;13.70;;;5.90;98.50;;;;;;5052330;28;20043;-77
2021/10/24 03:42:59;;;;;;;23.37;12.97;;;5.90;98.50;;;;;;5051958;28;20044;-77
2021/10/24 03:45:25;;;;;;;20.43;12.27;;;5.90;98.50;;;;;;5051886;28;20025;-77
2021/10/24 03:47:50;;;;;;;22.70;13.50;;;5.90;98.60;;;;;;5036909;28;20032;-81
2021/10/24 03:50:16;;;;;;;18.97;12.40;;;5.80;98.60;;;;;;5036731;28;20092;-81
2021/10/24 03:52:42;;;;;;;25.43;13.47;;;5.90;98.60;;;;;;5052988;28;20059;-81
2021/10/24 03:55:12;;;;;;;22.37;12.43;;;5.90;98.60;;;;;;5054925;28;20108;-81
2021/10/24 03:57:41;;;;;;;21.67;12.77;;;5.80;98.60;;;;;;5055361;28;20044;-81
2021/10/24 04:00:08;;;;;;;21.97;12.87;;;5.80;98.60;;;;;;5037077;28;20029;-78
2021/10/24 04:02:34;;;;;;;21.60;12.80;;;5.80;98.60;;;;;;5052077;28;20488;-81
2021/10/24 04:05:00;;;;;;;24.90;13.27;;;5.80;98.60;;;;;;5055744;28;20029;-81
2021/10/24 04:07:25;;;;;;;18.33;12.20;;;5.80;98.60;;;;;;5071125;28;20033;-81
2021/10/24 04:09:51;;;;;;;24.33;13.50;;;5.80;98.70;;;;;;5054752;28;20029;-81
2021/10/24 04:12:16;;;;;;;23.53;12.37;;;5.80;98.70;;;;;;5053995;28;20025;-81
2021/10/24 04:14:42;;;;;;;23.97;13.07;;;5.80;98.70;;;;;;5055472;28;20056;-81
2021/10/24 04:17:09;;;;;;;23.07;13.03;;;5.80;98.70;;;;;;5055346;28;20182;-81
2021/10/24 04:19:34;;;;;;;22.37;13.00;;;5.80;98.70;;;;;;5054327;28;20025;-81
2021/10/24 04:22:00;;;;;;;23.17;12.33;;;5.80;98.70;;;;;;5038203;28;20025;-81
2021/10/24 04:24:26;;;;;;;19.60;11.70;;;5.70;98.60;;;;;;5045973;28;20106;-81
2021/10/24 04:26:52;;;;;;;23.87;11.97;;;5.70;98.70;;;;;;5058888;28;20032;-81
2021/10/24 04:29:18;;;;;;;20.03;12.23;;;5.70;98.70;;;;;;5062317;28;20543;-81
2021/10/24 04:31:44;;;;;;;24.17;12.47;;;5.70;98.70;;;;;;5079161;28;20028;-81
2021/10/24 04:34:10;;;;;;;21.13;12.33;;;5.70;98.70;;;;;;5060028;28;20032;-81
2021/10/24 04:36:37;;;;;;;21.87;12.53;;;5.70;98.70;;;;;;5049023;28;20082;-80
2021/10/24 04:39:03;;;;;;;21.77;12.47;;;5.70;98.70;;;;;;5063707;28;20119;-81
2021/10/24 04:41:29;;;;;;;23.80;12.97;;;5.70;98.70;;;;;;5068320;28;20201;-81
2021/10/24 04:43:54;;;;;;;22.87;12.40;;;5.60;98.70;;;;;;5077916;28;20082;-81
2021/10/24 04:46:20;;;;;;;25.67;12.03;;;5.60;98.70;;;;;;5073109;28;20041;-80
2021/10/24 04:48:46;;;;;;;24.17;11.93;;;5.60;98.70;;;;;;5041686;28;20036;-77
2021/10/24 04:51:11;;;;;;;22.73;12.57;;;5.60;98.70;;;;;;5069072;28;20028;-77
2021/10/24 04:53:37;;;;;;;25.70;13.17;;;5.60;98.70;;;;;;5071885;28;20036;-77
2021/10/24 04:56:03;;;;;;;20.00;12.53;;;5.60;99.00;;;;;;5074210;28;20032;-77
2021/10/24 04:58:28;;;;;;;23.07;13.20;;;5.60;98.70;;;;;;5073779;28;20127;-77
2021/10/24 05:00:54;;;;;;;19.90;11.90;;;5.60;98.70;;;;;;5074980;28;20029;-77
2021/10/24 05:03:21;;;;;;;19.83;11.63;;;5.60;98.70;;;;;;5074929;28;20082;-77
2021/10/24 05:05:47;;;;;;;20.67;12.40;;;5.60;98.70;;;;;;5075064;28;20187;-77
2021/10/24 05:08:13;;;;;;;24.60;11.97;;;5.60;98.70;;;;;;5058320;28;20024;-77
2021/10/24 05:10:41;;;;;;;22.40;13.03;;;5.60;98.70;;;;;;5041727;28;20470;-77
2021/10/24 05:13:07;;;;;;;22.57;12.57;;;5.50;98.70;;;;;;5042226;28;20499;-77
2021/10/24 05:15:32;;;;;;;18.43;11.97;;;5.50;98.70;;;;;;5058223;28;20048;-77
2021/10/24 05:17:58;;;;;;;21.20;12.13;;;5.50;98.80;;;;;;5074682;28;20123;-77
2021/10/24 05:20:24;;;;;;;19.37;12.27;;;5.50;98.80;;;;;;5057844;28;20037;-77
2021/10/24 05:22:50;;;;;;;22.97;13.10;;;5.40;98.80;;;;;;5074583;28;20365;-77
2021/10/24 05:25:15;;;;;;;20.87;12.13;;;5.40;98.80;;;;;;5058146;28;20537;-77
2021/10/24 05:27:41;;;;;;;22.03;12.23;;;5.40;98.80;;;;;;5057888;28;20021;-77
2021/10/24 05:30:07;;;;;;;21.50;11.87;;;5.50;98.90;;;;;;5057754;28;20476;-77
2021/10/24 05:32:34;;;;;;;21.90;13.73;;;5.40;98.80;;;;;;5041200;28;20031;-77
2021/10/24 05:35:00;;;;;;;20.43;12.60;;;5.40;98.90;;;;;;5074315;28;20032;-77
2021/10/24 05:37:25;;;;;;;23.13;12.73;;;5.40;98.90;;;;;;5074066;28;20123;-77
2021/10/24 05:39:51;;;;;;;18.97;12.30;;;5.40;98.90;;;;;;5040019;28;20056;-77
2021/10/24 05:42:17;;;;;;;23.57;13.27;;;5.40;98.80;;;;;;5074230;28;20036;-78
2021/10/24 05:44:43;;;;;;;18.80;11.03;;;5.40;98.90;;;;;;5057553;28;20033;-77
2021/10/24 05:47:09;;;;;;;19.63;12.00;;;5.40;98.90;;;;;;5074229;28;20028;-77
2021/10/24 05:49:35;;;;;;;21.27;12.23;;;5.40;98.90;;;;;;5074180;28;20036;-77
2021/10/24 05:52:00;;;;;;;21.57;11.97;;;5.30;98.90;;;;;;5057451;28;20029;-77
2021/10/24 05:54:26;;;;;;;20.70;13.50;;;5.30;98.90;;;;;;5073946;28;20500;-77
2021/10/24 05:56:52;;;;;;;23.47;13.77;;;5.30;98.80;;;;;;5057148;28;20052;-77
2021/10/24 05:59:17;;;;;;;21.23;13.33;;;5.30;98.90;;;;;;5073934;28;20365;-78
2021/10/24 06:01:43;;;;;;;26.90;13.20;;;5.30;98.90;;;;;;5054904;28;20031;-77
2021/10/24 06:04:08;;;;;;;23.33;12.50;;;5.30;98.90;;;;;;5055656;28;20032;-78
2021/10/24 06:06:34;;;;;;;26.23;13.33;;;5.30;98.90;;;;;;5072742;28;20381;-78
2021/10/24 06:09:01;;;;;;;21.97;13.33;;;5.30;98.90;;;;;;5038981;28;20502;-77
2021/10/24 06:11:33;;;;;;;24.20;13.70;;;5.30;99.00;;;;;;5040887;28;20060;-78
2021/10/24 06:13:59;;;;;;;27.90;12.70;;;5.40;99.00;;;;;;5074751;28;20055;-78
2021/10/24 06:16:24;;;;;;;22.87;13.87;;;5.30;99.00;;;;;;5056539;28;20118;-78
2021/10/24 06:18:51;;;;;;;20.43;12.87;;;5.30;99.00;;;;;;5074348;28;20032;-78
2021/10/24 06:21:16;;;;;;;23.17;12.67;;;5.20;99.00;;;;;;5074804;28;20028;-78
2021/10/24 06:23:42;;;;;;;25.13;13.37;;;5.20;99.00;;;;;;5056743;28;20128;-78
2021/10/24 06:26:07;;;;;;;22.17;13.13;;;5.20;99.00;;;;;;5056590;28;20116;-77
2021/10/24 06:28:33;;;;;;;25.20;13.00;;;5.10;98.90;;;;;;5056699;28;20052;-78
2021/10/24 06:30:59;;;;;;;25.30;13.47;;;5.20;99.00;;;;;;5056933;28;20070;-78
2021/10/24 06:33:25;;;;;;;26.20;14.23;;;5.30;99.00;;;;;;5056604;28;20052;-77
2021/10/24 06:35:50;;;;;;;23.60;13.00;;;5.20;99.00;;;;;;5056504;28;20476;-77
2021/10/24 06:38:17;;;;;;;20.17;12.70;;;5.20;99.00;;;;;;5056448;28;20108;-77
2021/10/24 06:40:44;;;;;;;22.10;13.87;;;5.20;99.10;;;;;;5072997;28;20074;-77
2021/10/24 06:43:10;;;;;;;24.07;12.60;;;5.30;99.20;;;;;;5072906;28;20024;-78
2021/10/24 06:45:36;;;;;;;30.87;13.27;;;5.30;99.20;;;;;;5056378;28;20040;-78
2021/10/24 06:48:03;;;;;;;25.37;14.03;;;5.30;99.20;;;;;;5056756;28;20029;-82
2021/10/24 06:50:29;;;;;;;23.30;13.33;;;5.30;99.20;;;;;;5072945;28;20381;-81
2021/10/24 06:52:55;;;;;;;24.37;12.80;;;5.30;99.20;;;;;;5073194;28;20024;-81
2021/10/24 06:55:21;;;;;;;24.73;14.10;;;5.30;99.20;;;;;;5075012;28;20027;-81
2021/10/24 06:57:52;;;;;;;22.93;13.47;;;5.30;99.20;;;;;;5056553;28;20103;-82
2021/10/24 07:00:21;;;;;;;25.20;13.67;;;5.40;99.20;;;;;;5074093;28;20021;-77
2021/10/24 07:02:48;;;;;;;24.17;12.77;;;5.40;99.20;;;;;;5072844;28;20035;-81
2021/10/24 07:05:14;;;;;;;22.50;13.00;;;5.40;99.30;;;;;;5056840;28;20031;-81
2021/10/24 07:07:40;;;;;;;24.20;13.33;;;5.40;99.30;;;;;;5073308;28;20033;-77
2021/10/24 07:10:07;;;;;;;22.20;12.53;;;5.60;99.30;;;;;;5072731;28;20032;-78
2021/10/24 07:12:33;;;;;;;21.63;13.73;;;5.50;99.30;;;;;;5072460;28;20111;-78
2021/10/24 07:14:58;;;;;;;23.17;13.40;;;5.40;99.40;;;;;;5056219;28;20082;-82
2021/10/24 07:17:24;;;;;;;23.30;14.13;;;5.50;99.40;;;;;;5075296;28;20036;-82
2021/10/24 07:19:50;;;;;;;27.27;14.63;;;5.60;99.60;;;;;;5057361;28;20029;-82
2021/10/24 07:22:16;;;;;;;23.80;14.33;;;5.60;99.50;;;;;;5074719;28;20028;-81
2021/10/24 07:24:41;;;;;;;24.57;14.83;;;5.70;99.50;;;;;;5056586;28;20469;-78
2021/10/24 07:27:07;;;;;;;22.93;15.40;;;5.70;99.50;;;;;;5055580;28;20035;-78
2021/10/24 07:29:33;;;;;;;24.53;15.47;;;5.70;99.50;;;;;;5072058;28;20025;-78
2021/10/24 07:31:58;;;;;;;26.13;15.03;;;5.70;99.50;;;;;;5072266;28;20029;-78
2021/10/24 07:34:25;;;;;;;26.13;15.37;;;5.80;99.50;;;;;;5072179;28;20060;-77
2021/10/24 07:36:51;;;;;;;22.80;14.17;;;5.80;99.50;;;;;;5072269;28;20108;-78
2021/10/24 07:39:16;;;;;;;22.07;14.80;;;5.80;99.50;;;;;;5073436;28;20490;-78
2021/10/24 07:41:44;;;;;;;29.83;15.30;;;5.80;99.50;;;;;;5055237;28;20072;-78
2021/10/24 07:44:11;;;;;;;21.63;14.20;;;5.90;99.60;;;;;;5071836;28;20021;-78
2021/10/24 07:46:37;;;;;;;24.83;15.13;;;5.90;99.60;;;;;;5073354;28;20100;-78
2021/10/24 07:49:03;;;;;;;26.60;15.13;;;6.00;99.60;;;;;;5055268;28;20392;-79
2021/10/24 07:51:29;;;;;;;26.13;14.77;;;6.00;99.60;;;;;;5071877;28;20031;-76
2021/10/24 07:53:54;;;;;;;24.13;15.27;;;6.10;99.70;;;;;;5055122;28;20484;-76
2021/10/24 07:56:24;;;;;;;26.30;15.20;;;6.10;99.60;;;;;;5055115;28;20058;-77
2021/10/24 07:58:50;;;;;;;24.80;15.00;;;6.20;99.60;;;;;;5055269;28;20036;-78
2021/10/24 08:01:16;;;;;;;25.77;16.07;;;6.20;99.60;;;;;;5054233;28;20495;-77
2021/10/24 08:03:43;;;;;;;24.17;16.17;;;6.30;99.60;;;;;;5055166;28;20062;-78
2021/10/24 08:06:08;;;;;;;26.83;16.47;;;6.40;99.60;;;;;;5071655;28;20025;-77
2021/10/24 08:08:35;;;;;;;26.43;16.87;;;6.30;99.60;;;;;;5071791;28;20024;-77
2021/10/24 08:11:01;;;;;;;28.70;16.50;;;6.40;99.60;;;;;;5072840;28;20438;-82
2021/10/24 08:13:27;;;;;;;27.07;16.90;;;6.40;99.60;;;;;;5055230;28;20052;-80
2021/10/24 08:15:52;;;;;;;22.93;16.20;;;6.50;99.60;;;;;;5071633;28;20048;-80
2021/10/24 08:18:18;;;;;;;27.57;15.40;;;6.60;99.70;;;;;;5071908;28;20039;-80
2021/10/24 08:20:45;;;;;;;26.40;16.23;;;6.60;99.60;;;;;;5038518;28;20478;-81
2021/10/24 08:23:12;;;;;;;23.60;15.00;;;6.60;99.60;;;;;;5071559;28;20025;-81
2021/10/24 08:25:37;;;;;;;24.30;16.33;;;6.70;99.70;;;;;;5072990;28;20036;-80
2021/10/24 08:28:03;;;;;;;21.60;14.07;;;6.80;99.70;;;;;;5055160;28;20020;-80
2021/10/24 08:30:29;;;;;;;24.73;15.07;;;6.80;99.70;;;;;;5054996;28;20035;-79
2021/10/24 08:32:55;;;;;;;23.93;15.40;;;6.90;99.70;;;;;;5055029;28;20029;-82
2021/10/24 08:35:22;;;;;;;23.63;14.80;;;6.90;99.70;;;;;;5038296;28;20041;-79
2021/10/24 08:37:49;;;;;;;26.60;14.50;;;7.00;99.70;;;;;;5072949;28;20056;-77
2021/10/24 08:40:15;;;;;;;24.20;14.87;;;7.10;99.70;;;;;;5071528;28;20374;-77
2021/10/24 08:42:41;;;;;;;24.23;15.50;;;7.20;99.70;;;;;;5071609;28;20028;-77
2021/10/24 08:45:10;;;;;;;24.67;15.40;;;7.20;99.60;;;;;;5054933;28;20032;-77
2021/10/24 08:47:37;;;;;;;25.63;15.53;;;7.30;99.60;;;;;;5055106;28;20060;-77
2021/10/24 08:50:03;;;;;;;24.17;14.67;;;7.40;99.60;;;;;;5071394;28;20025;-77
2021/10/24 08:52:33;;;;;;;25.10;15.23;;;7.40;99.60;;;;;;5072685;28;20028;-78
2021/10/24 08:54:59;;;;;;;21.10;14.90;;;7.50;99.60;;;;;;5071536;28;20036;-77
2021/10/24 08:57:25;;;;;;;26.23;14.60;;;7.50;99.60;;;;;;5054699;28;20031;-77
2021/10/24 08:59:53;;;;;;;23.23;12.93;;;7.70;99.60;;;;;;5038060;28;20029;-78
2021/10/24 09:02:19;;;;;;;17.93;12.87;;;7.70;99.60;;;;;;5072397;28;20098;-78
2021/10/24 09:04:49;;;;;;;23.27;13.63;;;7.80;99.60;;;;;;5071028;28;20473;-77
2021/10/24 09:07:15;;;;;;;21.90;13.67;;;7.90;99.40;;;;;;5072455;28;20035;-77
2021/10/24 09:09:41;;;;;;;19.63;13.30;;;8.10;99.30;;;;;;5054708;28;20029;-78
2021/10/24 09:12:09;;;;;;;20.47;13.57;;;8.00;99.30;;;;;;5071363;28;20028;-77
2021/10/24 09:14:51;;;;;;;22.73;14.03;;;8.10;99.20;;;;;;5074578;28;20068;-78
2021/10/24 09:17:31;;;;;;;21.83;12.33;;;8.20;98.80;;;;;;5074784;28;20120;-75
2021/10/24 09:20:11;;;;;;;19.60;12.63;;;8.30;98.80;;;;;;5074737;28;20028;-77
2021/10/24 09:22:39;;;;;;;20.33;12.17;;;8.30;98.70;;;;;;5075856;28;20024;-79
2021/10/24 09:25:12;;;;;;;18.00;11.37;;;8.30;98.60;;;;;;5074393;28;20059;-78
2021/10/24 09:27:55;;;;;;;19.00;11.73;;;8.50;98.70;;;;;;5074607;28;20039;-78
2021/10/24 09:30:36;;;;;;;21.03;12.07;;;8.70;98.70;;;;;;5074388;28;20078;-78
2021/10/24 09:33:09;;;;;;;18.77;11.27;;;8.90;98.80;;;;;;5075720;28;20420;-79
2021/10/24 09:35:46;;;;;;;15.67;9.17;;;9.20;99.00;;;;;;5075570;28;20388;-78
2021/10/24 09:38:15;;;;;;;14.47;7.83;;;9.70;99.20;;;;;;5075623;28;20021;-78
2021/10/24 09:40:45;;;;;;;12.27;7.23;;;10.20;99.60;;;;;;5074338;28;20455;-78
2021/10/24 09:43:17;;;;;;;10.85;5.88;;;10.80;99.90;;;;;;5058113;28;20024;-79
2021/10/24 09:45:44;;;;;;;8.60;5.03;;;11.40;99.90;;;;;;5075245;28;20523;-78
2021/10/24 09:48:12;;;;;;;9.52;5.10;;;12.30;99.90;;;;;;5075321;28;20074;-80
2021/10/24 09:51:03;;;;;;;9.25;4.88;;;13.00;99.90;;;;;;5074043;28;20024;-80
2021/10/24 09:53:30;;;;;;;7.38;4.35;;;13.90;99.80;;;;;;5075322;28;20029;-78
2021/10/24 09:55:56;;;;;;;7.72;3.80;;;14.90;99.60;;;;;;5075214;28;20103;-79
2021/10/24 09:58:23;;;;;;;8.07;3.55;;;15.80;99.30;;;;;;5073740;28;20429;-78
2021/10/24 10:00:50;;;;;;;5.18;2.72;;;16.60;96.70;;;;;;5075153;28;20033;-77
2021/10/24 10:03:17;;;;;;;5.82;2.58;;;17.40;95.60;;;;;;5074973;28;20472;-77
2021/10/24 10:05:43;;;;;;;5.38;2.83;;;18.00;94.10;;;;;;5073891;28;20027;-79
2021/10/24 10:08:13;;;;;;;6.65;3.17;;;18.70;92.80;;;;;;5073810;28;20115;-78
2021/10/24 10:10:49;;;;;;;7.28;2.35;;;19.40;91.20;;;;;;5073755;28;20453;-79
2021/10/24 10:13:21;;;;;;;4.95;2.63;;;20.00;88.50;;;;;;5073516;28;20388;-79
2021/10/24 10:15:49;;;;;;;6.90;3.58;;;20.50;85.00;;;;;;5073407;28;20515;-78
2021/10/24 10:18:16;;;;;;;9.15;3.60;;;21.00;77.30;;;;;;5056845;28;20111;-79
2021/10/24 10:20:53;;;;;;;7.35;3.03;;;21.30;75.00;;;;;;5056940;28;20069;-77
2021/10/24 10:23:37;;;;;;;6.38;3.40;;;21.70;70.00;;;;;;5073416;28;20028;-78
2021/10/24 10:26:37;;;;;;;4.78;2.80;;;22.10;68.30;;;;;;5072806;28;20065;-79
2021/10/24 10:29:06;;;;;;;5.97;3.15;;;22.40;66.00;;;;;;5073288;28;20020;-78
2021/10/24 10:31:36;;;;;;;7.10;3.60;;;22.80;65.50;;;;;;5074792;28;20031;-78
2021/10/24 10:34:11;;;;;;;6.63;2.92;;;23.20;62.60;;;;;;5074288;28;20107;-78
2021/10/24 10:36:49;;;;;;;8.68;3.72;;;23.40;60.50;;;;;;5074392;28;20103;-79
2021/10/24 10:39:44;;;;;;;6.32;3.10;;;23.80;59.20;;;;;;5073105;28;20170;-81
2021/10/24 10:42:29;;;;;;;5.38;2.97;;;24.10;57.40;;;;;;5060343;28;20493;-78
2021/10/24 10:45:14;;;;;;;5.90;2.83;;;24.40;56.40;;;;;;5072766;28;20431;-79
2021/10/24 10:47:55;;;;;;;4.18;2.53;;;24.70;54.80;;;;;;5072530;28;20020;-78
2021/10/24 10:50:26;;;;;;;5.45;2.78;;;24.90;53.20;;;;;;5072553;28;20025;-79
2021/10/24 10:52:52;;;;;;;6.78;3.17;;;25.10;52.10;;;;;;5074003;28;20035;-79
2021/10/24 10:55:18;;;;;;;6.43;2.53;;;25.20;51.30;;;;;;5072980;28;20123;-80
2021/10/24 10:57:44;;;;;;;5.97;2.35;;;25.40;50.20;;;;;;5039542;28;20064;-78
2021/10/24 11:00:33;;;;;;;4.57;2.70;;;25.50;50.30;;;;;;5056026;28;20049;-78
2021/10/24 11:02:58;;;;;;;4.85;2.70;;;25.60;47.80;;;;;;5055934;28;20035;-79
2021/10/24 11:05:34;;;;;;;5.60;2.90;;;25.70;47.70;;;;;;5055947;28;20029;-78
2021/10/24 11:08:44;;;;;;;6.00;3.25;;;25.70;47.40;;;;;;5073749;28;20488;-79
2021/10/24 11:11:09;;;;;;;6.50;2.92;;;25.80;46.80;;;;;;5072658;28;20055;-79
2021/10/24 11:13:37;;;;;;;5.07;2.58;;;26.10;46.90;;;;;;5072514;28;20064;-78
2021/10/24 11:16:53;;;;;;;7.43;3.38;;;26.30;46.60;;;;;;5072375;28;20514;-79
2021/10/24 11:19:28;;;;;;;5.15;2.75;;;26.50;45.60;;;;;;5014974;28;20412;-78
2021/10/24 11:21:57;;;;;;;5.55;2.70;;;26.70;45.50;;;;;;5014914;28;20033;-77
2021/10/24 11:24:24;;;;;;;5.55;3.10;;;26.70;45.30;;;;;;5049914;28;20043;-79
2021/10/24 11:26:57;;;;;;;4.55;2.88;;;26.80;44.10;;;;;;5073491;28;20020;-78
2021/10/24 11:29:23;;;;;;;8.45;2.80;;;26.80;44.20;;;;;;5072079;28;20066;-78
2021/10/24 11:32:08;;;;;;;5.50;2.88;;;27.00;44.30;;;;;;5073422;28;20024;-79
2021/10/24 11:34:34;;;;;;;5.32;2.38;;;27.10;43.70;;;;;;5072242;28;20102;-79
2021/10/24 11:37:00;;;;;;;4.75;2.53;;;27.20;43.80;;;;;;5054492;28;20129;-80
2021/10/24 11:39:26;;;;;;;6.57;2.88;;;27.40;42.90;;;;;;5073317;28;20067;-77
2021/10/24 11:42:13;;;;;;;5.70;2.45;;;27.60;42.80;;;;;;5054747;28;20087;-78
2021/10/24 11:44:40;;;;;;;5.25;2.20;;;27.70;41.40;;;;;;5052303;28;20120;-81
2021/10/24 11:47:14;;;;;;;4.85;2.13;;;27.80;41.50;;;;;;5053483;28;20021;-79
2021/10/24 11:49:46;;;;;;;4.88;2.53;;;27.90;41.50;;;;;;5063213;28;20028;-79
2021/10/24 11:52:27;;;;;;;6.00;2.57;;;27.60;41.60;;;;;;5055583;28;20027;-80
2021/10/24 11:55:10;;;;;;;3.72;1.75;;;27.30;41.90;;;;;;5072674;28;20482;-79
2021/10/24 11:58:07;;;;;;;7.63;2.33;;;27.00;42.40;;;;;;5072740;28;20083;-79
2021/10/24 12:01:07;;;;;;;4.35;1.95;;;26.80;42.90;;;;;;5058553;28;20021;-77
2021/10/24 12:03:27;;;;;;;4.18;1.92;;;26.50;43.20;;;;;;5067358;28;20086;-78
2021/10/24 12:05:53;;;;;;;5.03;2.20;;;26.30;43.40;;;;;;5035495;28;20028;-79
2021/10/24 12:08:36;;;;;;;7.78;2.85;;;26.10;43.30;;;;;;5052215;28;20040;-80
2021/10/24 12:11:02;;;;;;;4.85;2.05;;;26.00;42.80;;;;;;5052235;28;20126;-80
2021/10/24 12:13:35;;;;;;;5.32;2.05;;;25.90;42.90;;;;;;5051725;28;20516;-76
2021/10/24 12:16:01;;;;;;;;;;;25.80;42.80;;;;;;5036418;28;20049;-77
2021/10/24 12:18:37;;;;;;;4.40;1.80;;;25.70;42.90;;;;;;5053205;28;19915;-79
2021/10/24 12:21:03;;;;;;;7.75;2.15;;;25.60;43.30;;;;;;5052954;28;20056;-79
2021/10/24 12:23:34;;;;;;;5.05;2.15;;;25.60;43.30;;;;;;5018943;28;20531;-80
2021/10/24 12:26:02;;;;;;;5.30;1.83;;;25.60;43.20;;;;;;5051727;28;20354;-78
2021/10/24 12:28:32;;;;;;;5.88;2.75;;;25.70;43.20;;;;;;5051874;28;20017;-77
2021/10/24 12:31:01;;;;;;;4.97;2.38;;;25.70;43.00;;;;;;5053130;28;20473;-79
2021/10/24 12:33:37;;;;;;;6.07;2.38;;;25.70;43.00;;;;;;5051298;28;20527;-79
2021/10/24 12:36:07;;;;;;;5.28;2.47;;;25.80;42.70;;;;;;5053072;28;20021;-78
2021/10/24 12:38:45;;;;;;;5.70;2.25;;;25.80;42.60;;;;;;5052295;28;20013;-79
2021/10/24 12:41:11;;;;;;;4.20;1.63;;;25.80;41.70;;;;;;5051680;28;20024;-79
2021/10/24 12:43:48;;;;;;;4.75;1.88;;;25.80;41.80;;;;;;5051547;28;20034;-77
2021/10/24 12:46:15;;;;;;;4.30;1.95;;;25.70;41.10;;;;;;5052064;28;20426;-81